sensor_id;sensor_type;location;lat;lon;timestamp;temperature;humidity
66504;DHT22;53329;44.878;20.636;2022-11-30T00:02:02;6.30;73.00
66504;DHT22;53329;44.878;20.636;2022-11-30T00:04:28;6.30;71.00
66504;DHT22;53329;44.878;20.636;2022-11-30T00:06:53;6.30;73.30
66504;DHT22;53329;44.878;20.636;2022-11-30T00:09:22;6.30;71.90
66504;DHT22;53329;44.878;20.636;2022-11-30T00:11:48;6.30;72.50
66504;DHT22;53329;44.878;20.636;2022-11-30T00:14:14;6.30;70.90
66504;DHT22;53329;44.878;20.636;2022-11-30T00:16:40;6.40;75.50
66504;DHT22;53329;44.878;20.636;2022-11-30T00:19:05;6.30;72.40
66504;DHT22;53329;44.878;20.636;2022-11-30T00:21:31;6.30;69.80
66504;DHT22;53329;44.878;20.636;2022-11-30T00:23:57;6.40;71.70
66504;DHT22;53329;44.878;20.636;2022-11-30T00:26:22;6.30;70.90
66504;DHT22;53329;44.878;20.636;2022-11-30T00:28:48;6.30;70.50
66504;DHT22;53329;44.878;20.636;2022-11-30T00:31:16;6.30;72.10
66504;DHT22;53329;44.878;20.636;2022-11-30T00:33:43;6.30;73.80
66504;DHT22;53329;44.878;20.636;2022-11-30T00:36:14;6.30;73.10
66504;DHT22;53329;44.878;20.636;2022-11-30T00:38:40;6.30;74.80
66504;DHT22;53329;44.878;20.636;2022-11-30T00:41:07;6.20;73.50
66504;DHT22;53329;44.878;20.636;2022-11-30T00:43:33;6.30;72.80
66504;DHT22;53329;44.878;20.636;2022-11-30T00:45:58;6.20;72.30
66504;DHT22;53329;44.878;20.636;2022-11-30T00:48:24;6.30;72.40
66504;DHT22;53329;44.878;20.636;2022-11-30T00:50:51;6.40;72.50
66504;DHT22;53329;44.878;20.636;2022-11-30T00:53:17;6.30;74.70
66504;DHT22;53329;44.878;20.636;2022-11-30T00:55:44;6.30;73.70
66504;DHT22;53329;44.878;20.636;2022-11-30T00:58:10;6.30;75.90
66504;DHT22;53329;44.878;20.636;2022-11-30T01:00:36;6.30;80.40
66504;DHT22;53329;44.878;20.636;2022-11-30T01:03:03;6.20;81.30
66504;DHT22;53329;44.878;20.636;2022-11-30T01:05:31;6.20;78.30
66504;DHT22;53329;44.878;20.636;2022-11-30T01:07:58;6.20;76.40
66504;DHT22;53329;44.878;20.636;2022-11-30T01:10:24;6.20;76.10
66504;DHT22;53329;44.878;20.636;2022-11-30T01:12:50;6.30;78.70
66504;DHT22;53329;44.878;20.636;2022-11-30T01:15:15;6.30;77.10
66504;DHT22;53329;44.878;20.636;2022-11-30T01:17:41;6.30;76.20
66504;DHT22;53329;44.878;20.636;2022-11-30T01:20:07;6.40;79.10
66504;DHT22;53329;44.878;20.636;2022-11-30T01:22:33;6.30;78.70
66504;DHT22;53329;44.878;20.636;2022-11-30T01:24:59;6.30;80.20
66504;DHT22;53329;44.878;20.636;2022-11-30T01:27:25;6.20;82.40
66504;DHT22;53329;44.878;20.636;2022-11-30T01:29:51;6.20;83.70
66504;DHT22;53329;44.878;20.636;2022-11-30T01:32:16;6.20;84.90
66504;DHT22;53329;44.878;20.636;2022-11-30T01:34:42;6.20;85.30
66504;DHT22;53329;44.878;20.636;2022-11-30T01:37:08;6.20;86.00
66504;DHT22;53329;44.878;20.636;2022-11-30T01:39:33;6.10;92.80
66504;DHT22;53329;44.878;20.636;2022-11-30T01:41:59;6.10;93.60
66504;DHT22;53329;44.878;20.636;2022-11-30T01:44:52;6.00;94.10
66504;DHT22;53329;44.878;20.636;2022-11-30T01:47:28;6.00;95.40
66504;DHT22;53329;44.878;20.636;2022-11-30T01:50:00;6.00;95.30
66504;DHT22;53329;44.878;20.636;2022-11-30T01:52:31;6.00;94.60
66504;DHT22;53329;44.878;20.636;2022-11-30T01:55:09;6.10;91.70
66504;DHT22;53329;44.878;20.636;2022-11-30T01:57:41;6.10;91.10
66504;DHT22;53329;44.878;20.636;2022-11-30T02:00:11;6.10;90.50
66504;DHT22;53329;44.878;20.636;2022-11-30T02:02:59;6.10;89.00
66504;DHT22;53329;44.878;20.636;2022-11-30T02:05:27;6.20;90.00
66504;DHT22;53329;44.878;20.636;2022-11-30T02:07:53;6.20;88.70
66504;DHT22;53329;44.878;20.636;2022-11-30T02:10:26;6.20;89.50
66504;DHT22;53329;44.878;20.636;2022-11-30T02:13:10;6.20;87.20
66504;DHT22;53329;44.878;20.636;2022-11-30T02:15:43;6.20;91.10
66504;DHT22;53329;44.878;20.636;2022-11-30T02:18:18;6.10;90.20
66504;DHT22;53329;44.878;20.636;2022-11-30T02:20:52;6.20;87.00
66504;DHT22;53329;44.878;20.636;2022-11-30T02:23:55;6.20;86.00
66504;DHT22;53329;44.878;20.636;2022-11-30T02:26:29;6.20;87.00
66504;DHT22;53329;44.878;20.636;2022-11-30T02:29:24;6.30;87.00
66504;DHT22;53329;44.878;20.636;2022-11-30T02:32:02;6.30;85.50
66504;DHT22;53329;44.878;20.636;2022-11-30T02:34:32;6.40;85.20
66504;DHT22;53329;44.878;20.636;2022-11-30T02:37:00;6.40;83.60
66504;DHT22;53329;44.878;20.636;2022-11-30T02:39:26;6.40;81.40
66504;DHT22;53329;44.878;20.636;2022-11-30T02:41:52;6.40;81.80
66504;DHT22;53329;44.878;20.636;2022-11-30T02:44:19;6.40;80.70
66504;DHT22;53329;44.878;20.636;2022-11-30T02:46:58;6.40;80.30
66504;DHT22;53329;44.878;20.636;2022-11-30T02:49:32;6.40;79.90
66504;DHT22;53329;44.878;20.636;2022-11-30T02:52:01;6.40;79.40
66504;DHT22;53329;44.878;20.636;2022-11-30T02:54:27;6.40;79.20
66504;DHT22;53329;44.878;20.636;2022-11-30T02:56:52;6.40;78.50
66504;DHT22;53329;44.878;20.636;2022-11-30T02:59:18;6.40;80.20
66504;DHT22;53329;44.878;20.636;2022-11-30T03:01:44;6.40;78.60
66504;DHT22;53329;44.878;20.636;2022-11-30T03:04:10;6.40;80.10
66504;DHT22;53329;44.878;20.636;2022-11-30T03:06:36;6.50;77.90
66504;DHT22;53329;44.878;20.636;2022-11-30T03:09:02;6.50;81.10
66504;DHT22;53329;44.878;20.636;2022-11-30T03:11:27;6.40;77.90
66504;DHT22;53329;44.878;20.636;2022-11-30T03:13:54;6.70;81.30
66504;DHT22;53329;44.878;20.636;2022-11-30T03:16:19;6.40;79.30
66504;DHT22;53329;44.878;20.636;2022-11-30T03:18:45;6.40;86.00
66504;DHT22;53329;44.878;20.636;2022-11-30T03:21:11;6.50;83.50
66504;DHT22;53329;44.878;20.636;2022-11-30T03:23:38;6.40;78.20
66504;DHT22;53329;44.878;20.636;2022-11-30T03:26:05;6.40;80.90
66504;DHT22;53329;44.878;20.636;2022-11-30T03:28:32;6.50;81.60
66504;DHT22;53329;44.878;20.636;2022-11-30T03:30:58;6.40;80.00
66504;DHT22;53329;44.878;20.636;2022-11-30T03:33:24;6.40;79.30
66504;DHT22;53329;44.878;20.636;2022-11-30T03:36:02;6.40;79.60
66504;DHT22;53329;44.878;20.636;2022-11-30T03:38:28;6.40;81.30
66504;DHT22;53329;44.878;20.636;2022-11-30T03:41:05;6.40;79.40
66504;DHT22;53329;44.878;20.636;2022-11-30T03:43:31;6.40;79.40
66504;DHT22;53329;44.878;20.636;2022-11-30T03:45:57;6.50;80.20
66504;DHT22;53329;44.878;20.636;2022-11-30T03:48:23;6.50;79.40
66504;DHT22;53329;44.878;20.636;2022-11-30T03:50:49;6.50;79.70
66504;DHT22;53329;44.878;20.636;2022-11-30T03:53:16;6.50;80.90
66504;DHT22;53329;44.878;20.636;2022-11-30T03:55:42;6.50;80.60
66504;DHT22;53329;44.878;20.636;2022-11-30T03:58:08;6.50;78.50
66504;DHT22;53329;44.878;20.636;2022-11-30T04:00:33;6.50;80.50
66504;DHT22;53329;44.878;20.636;2022-11-30T04:02:59;6.50;79.20
66504;DHT22;53329;44.878;20.636;2022-11-30T04:05:27;6.50;79.00
66504;DHT22;53329;44.878;20.636;2022-11-30T04:07:53;6.40;79.80
66504;DHT22;53329;44.878;20.636;2022-11-30T04:10:19;6.50;79.90
66504;DHT22;53329;44.878;20.636;2022-11-30T04:12:45;6.50;80.30
66504;DHT22;53329;44.878;20.636;2022-11-30T04:15:11;6.40;78.30
66504;DHT22;53329;44.878;20.636;2022-11-30T04:17:36;6.50;78.70
66504;DHT22;53329;44.878;20.636;2022-11-30T04:20:03;6.40;80.30
66504;DHT22;53329;44.878;20.636;2022-11-30T04:22:29;6.40;80.20
66504;DHT22;53329;44.878;20.636;2022-11-30T04:24:55;6.40;79.10
66504;DHT22;53329;44.878;20.636;2022-11-30T04:27:20;6.40;79.80
66504;DHT22;53329;44.878;20.636;2022-11-30T04:29:46;6.50;80.90
66504;DHT22;53329;44.878;20.636;2022-11-30T04:32:12;6.50;79.40
66504;DHT22;53329;44.878;20.636;2022-11-30T04:34:37;6.40;79.70
66504;DHT22;53329;44.878;20.636;2022-11-30T04:37:03;6.40;80.60
66504;DHT22;53329;44.878;20.636;2022-11-30T04:39:31;6.40;81.00
66504;DHT22;53329;44.878;20.636;2022-11-30T04:41:57;6.40;82.90
66504;DHT22;53329;44.878;20.636;2022-11-30T04:44:23;6.30;83.00
66504;DHT22;53329;44.878;20.636;2022-11-30T04:46:48;6.30;82.10
66504;DHT22;53329;44.878;20.636;2022-11-30T04:49:14;6.40;81.40
66504;DHT22;53329;44.878;20.636;2022-11-30T04:51:40;6.40;80.90
66504;DHT22;53329;44.878;20.636;2022-11-30T04:54:06;6.40;81.70
66504;DHT22;53329;44.878;20.636;2022-11-30T04:56:31;6.40;83.00
66504;DHT22;53329;44.878;20.636;2022-11-30T04:58:57;6.40;82.00
66504;DHT22;53329;44.878;20.636;2022-11-30T05:01:23;6.40;84.20
66504;DHT22;53329;44.878;20.636;2022-11-30T05:03:48;6.30;83.80
66504;DHT22;53329;44.878;20.636;2022-11-30T05:06:14;6.30;88.70
66504;DHT22;53329;44.878;20.636;2022-11-30T05:08:40;6.30;87.50
66504;DHT22;53329;44.878;20.636;2022-11-30T05:11:05;6.30;89.80
66504;DHT22;53329;44.878;20.636;2022-11-30T05:13:31;6.30;88.40
66504;DHT22;53329;44.878;20.636;2022-11-30T05:15:57;6.30;86.90
66504;DHT22;53329;44.878;20.636;2022-11-30T05:18:23;6.30;86.90
66504;DHT22;53329;44.878;20.636;2022-11-30T05:20:50;6.30;82.10
66504;DHT22;53329;44.878;20.636;2022-11-30T05:23:17;6.30;86.20
66504;DHT22;53329;44.878;20.636;2022-11-30T05:25:44;6.30;82.90
66504;DHT22;53329;44.878;20.636;2022-11-30T05:28:10;6.30;82.90
66504;DHT22;53329;44.878;20.636;2022-11-30T05:30:40;6.40;81.60
66504;DHT22;53329;44.878;20.636;2022-11-30T05:33:06;6.40;82.10
66504;DHT22;53329;44.878;20.636;2022-11-30T05:35:32;6.40;82.20
66504;DHT22;53329;44.878;20.636;2022-11-30T05:37:58;6.40;82.30
66504;DHT22;53329;44.878;20.636;2022-11-30T05:40:24;6.40;84.90
66504;DHT22;53329;44.878;20.636;2022-11-30T05:42:56;6.40;82.60
66504;DHT22;53329;44.878;20.636;2022-11-30T05:45:22;6.40;80.60
66504;DHT22;53329;44.878;20.636;2022-11-30T05:47:47;6.40;79.80
66504;DHT22;53329;44.878;20.636;2022-11-30T05:50:13;6.40;79.60
66504;DHT22;53329;44.878;20.636;2022-11-30T05:52:39;6.40;80.10
66504;DHT22;53329;44.878;20.636;2022-11-30T05:55:05;6.40;78.30
66504;DHT22;53329;44.878;20.636;2022-11-30T05:57:31;6.40;78.10
66504;DHT22;53329;44.878;20.636;2022-11-30T05:59:59;6.40;74.80
66504;DHT22;53329;44.878;20.636;2022-11-30T06:02:25;6.50;74.80
66504;DHT22;53329;44.878;20.636;2022-11-30T06:04:51;6.50;72.00
66504;DHT22;53329;44.878;20.636;2022-11-30T06:07:16;6.50;71.10
66504;DHT22;53329;44.878;20.636;2022-11-30T06:09:42;6.50;72.90
66504;DHT22;53329;44.878;20.636;2022-11-30T06:12:08;6.60;72.80
66504;DHT22;53329;44.878;20.636;2022-11-30T06:14:33;6.50;71.80
66504;DHT22;53329;44.878;20.636;2022-11-30T06:16:59;6.60;72.70
66504;DHT22;53329;44.878;20.636;2022-11-30T06:19:25;6.70;72.60
66504;DHT22;53329;44.878;20.636;2022-11-30T06:21:50;6.60;73.60
66504;DHT22;53329;44.878;20.636;2022-11-30T06:24:16;6.60;70.70
66504;DHT22;53329;44.878;20.636;2022-11-30T06:26:42;6.60;69.70
66504;DHT22;53329;44.878;20.636;2022-11-30T06:29:08;6.60;68.70
66504;DHT22;53329;44.878;20.636;2022-11-30T06:31:34;6.60;71.30
66504;DHT22;53329;44.878;20.636;2022-11-30T06:34:00;6.70;72.10
66504;DHT22;53329;44.878;20.636;2022-11-30T06:36:26;6.70;69.50
66504;DHT22;53329;44.878;20.636;2022-11-30T06:38:52;6.70;72.30
66504;DHT22;53329;44.878;20.636;2022-11-30T06:41:18;6.70;73.80
66504;DHT22;53329;44.878;20.636;2022-11-30T06:43:43;6.80;73.90
66504;DHT22;53329;44.878;20.636;2022-11-30T06:46:21;6.80;73.90
66504;DHT22;53329;44.878;20.636;2022-11-30T06:48:48;6.90;71.40
66504;DHT22;53329;44.878;20.636;2022-11-30T06:51:15;6.90;70.10
66504;DHT22;53329;44.878;20.636;2022-11-30T06:53:42;6.90;70.30
66504;DHT22;53329;44.878;20.636;2022-11-30T06:56:09;6.90;69.10
66504;DHT22;53329;44.878;20.636;2022-11-30T06:58:36;7.00;69.20
66504;DHT22;53329;44.878;20.636;2022-11-30T07:01:07;6.90;69.30
66504;DHT22;53329;44.878;20.636;2022-11-30T07:03:34;6.90;69.20
66504;DHT22;53329;44.878;20.636;2022-11-30T07:06:05;6.80;68.20
66504;DHT22;53329;44.878;20.636;2022-11-30T07:08:32;6.90;69.80
66504;DHT22;53329;44.878;20.636;2022-11-30T07:10:58;6.90;69.90
66504;DHT22;53329;44.878;20.636;2022-11-30T07:13:24;6.90;66.30
66504;DHT22;53329;44.878;20.636;2022-11-30T07:15:50;6.90;66.60
66504;DHT22;53329;44.878;20.636;2022-11-30T07:18:16;6.90;68.40
66504;DHT22;53329;44.878;20.636;2022-11-30T07:20:41;6.90;68.00
66504;DHT22;53329;44.878;20.636;2022-11-30T07:23:07;7.00;66.50
66504;DHT22;53329;44.878;20.636;2022-11-30T07:25:53;6.90;66.80
66504;DHT22;53329;44.878;20.636;2022-11-30T07:28:54;7.00;67.10
66504;DHT22;53329;44.878;20.636;2022-11-30T07:31:24;7.00;65.30
66504;DHT22;53329;44.878;20.636;2022-11-30T07:33:51;7.00;66.20
66504;DHT22;53329;44.878;20.636;2022-11-30T07:36:19;7.00;66.60
66504;DHT22;53329;44.878;20.636;2022-11-30T07:38:45;7.00;65.90
66504;DHT22;53329;44.878;20.636;2022-11-30T07:41:12;7.00;65.70
66504;DHT22;53329;44.878;20.636;2022-11-30T07:43:38;6.90;65.90
66504;DHT22;53329;44.878;20.636;2022-11-30T07:46:04;7.00;66.20
66504;DHT22;53329;44.878;20.636;2022-11-30T07:48:30;7.00;65.20
66504;DHT22;53329;44.878;20.636;2022-11-30T07:51:14;7.10;65.90
66504;DHT22;53329;44.878;20.636;2022-11-30T07:53:40;7.20;63.80
66504;DHT22;53329;44.878;20.636;2022-11-30T07:56:10;7.30;65.60
66504;DHT22;53329;44.878;20.636;2022-11-30T07:58:37;7.30;64.00
66504;DHT22;53329;44.878;20.636;2022-11-30T08:01:09;7.30;63.70
66504;DHT22;53329;44.878;20.636;2022-11-30T08:12:52;7.20;64.30
66504;DHT22;53329;44.878;20.636;2022-11-30T08:15:18;7.20;66.80
66504;DHT22;53329;44.878;20.636;2022-11-30T08:17:58;7.30;67.20
66504;DHT22;53329;44.878;20.636;2022-11-30T08:20:24;7.20;66.40
66504;DHT22;53329;44.878;20.636;2022-11-30T08:22:50;7.20;67.20
66504;DHT22;53329;44.878;20.636;2022-11-30T08:25:17;7.20;67.80
66504;DHT22;53329;44.878;20.636;2022-11-30T08:27:43;7.20;66.70
66504;DHT22;53329;44.878;20.636;2022-11-30T08:30:09;7.30;68.10
66504;DHT22;53329;44.878;20.636;2022-11-30T08:32:55;7.20;66.70
66504;DHT22;53329;44.878;20.636;2022-11-30T08:35:21;7.20;67.10
66504;DHT22;53329;44.878;20.636;2022-11-30T08:37:47;7.20;67.60
66504;DHT22;53329;44.878;20.636;2022-11-30T08:40:32;7.20;66.90
66504;DHT22;53329;44.878;20.636;2022-11-30T08:46:05;7.30;66.00
66504;DHT22;53329;44.878;20.636;2022-11-30T08:48:32;7.40;65.70
66504;DHT22;53329;44.878;20.636;2022-11-30T08:51:28;7.40;66.20
66504;DHT22;53329;44.878;20.636;2022-11-30T08:53:57;7.40;65.10
66504;DHT22;53329;44.878;20.636;2022-11-30T08:56:23;7.50;65.30
66504;DHT22;53329;44.878;20.636;2022-11-30T08:58:49;7.50;64.20
66504;DHT22;53329;44.878;20.636;2022-11-30T09:02:04;7.60;66.00
66504;DHT22;53329;44.878;20.636;2022-11-30T09:04:20;7.60;63.80
66504;DHT22;53329;44.878;20.636;2022-11-30T09:06:46;7.60;61.40
66504;DHT22;53329;44.878;20.636;2022-11-30T09:09:12;7.70;64.00
66504;DHT22;53329;44.878;20.636;2022-11-30T09:11:38;7.70;61.10
66504;DHT22;53329;44.878;20.636;2022-11-30T09:14:03;7.60;62.40
66504;DHT22;53329;44.878;20.636;2022-11-30T09:16:30;7.60;62.30
66504;DHT22;53329;44.878;20.636;2022-11-30T09:19:05;7.60;62.10
66504;DHT22;53329;44.878;20.636;2022-11-30T09:21:34;7.60;61.30
66504;DHT22;53329;44.878;20.636;2022-11-30T09:24:00;7.70;62.30
66504;DHT22;53329;44.878;20.636;2022-11-30T09:26:26;7.80;62.50
66504;DHT22;53329;44.878;20.636;2022-11-30T09:32:18;8.00;60.00
66504;DHT22;53329;44.878;20.636;2022-11-30T09:34:43;7.90;57.80
66504;DHT22;53329;44.878;20.636;2022-11-30T09:37:14;7.90;58.60
66504;DHT22;53329;44.878;20.636;2022-11-30T09:39:40;7.90;57.70
66504;DHT22;53329;44.878;20.636;2022-11-30T09:45:18;8.00;58.90
66504;DHT22;53329;44.878;20.636;2022-11-30T09:48:00;8.00;58.40
66504;DHT22;53329;44.878;20.636;2022-11-30T09:50:33;7.90;60.00
66504;DHT22;53329;44.878;20.636;2022-11-30T09:56:27;8.00;59.20
66504;DHT22;53329;44.878;20.636;2022-11-30T09:59:14;8.00;57.70
66504;DHT22;53329;44.878;20.636;2022-11-30T10:01:43;8.10;58.10
66504;DHT22;53329;44.878;20.636;2022-11-30T10:08:03;8.10;56.30
66504;DHT22;53329;44.878;20.636;2022-11-30T10:10:40;8.20;56.50
66504;DHT22;53329;44.878;20.636;2022-11-30T10:16:48;8.10;56.90
66504;DHT22;53329;44.878;20.636;2022-11-30T10:32:53;8.10;54.10
66504;DHT22;53329;44.878;20.636;2022-11-30T10:35:52;8.10;54.40
66504;DHT22;53329;44.878;20.636;2022-11-30T10:38:42;8.10;57.80
66504;DHT22;53329;44.878;20.636;2022-11-30T10:41:27;8.30;61.30
66504;DHT22;53329;44.878;20.636;2022-11-30T10:43:59;8.20;56.40
66504;DHT22;53329;44.878;20.636;2022-11-30T10:46:28;8.30;54.80
66504;DHT22;53329;44.878;20.636;2022-11-30T10:48:58;8.40;56.10
66504;DHT22;53329;44.878;20.636;2022-11-30T10:51:27;8.40;54.10
66504;DHT22;53329;44.878;20.636;2022-11-30T10:53:53;8.50;52.20
66504;DHT22;53329;44.878;20.636;2022-11-30T10:56:19;8.70;54.30
66504;DHT22;53329;44.878;20.636;2022-11-30T10:58:59;8.80;52.60
66504;DHT22;53329;44.878;20.636;2022-11-30T11:01:40;8.90;50.10
66504;DHT22;53329;44.878;20.636;2022-11-30T11:04:09;8.90;66.00
66504;DHT22;53329;44.878;20.636;2022-11-30T11:06:45;8.90;62.00
66504;DHT22;53329;44.878;20.636;2022-11-30T11:09:32;8.60;62.20
66504;DHT22;53329;44.878;20.636;2022-11-30T11:12:33;8.60;70.20
66504;DHT22;53329;44.878;20.636;2022-11-30T11:15:26;8.50;69.40
66504;DHT22;53329;44.878;20.636;2022-11-30T11:17:52;8.50;66.20
66504;DHT22;53329;44.878;20.636;2022-11-30T11:20:31;8.40;61.10
66504;DHT22;53329;44.878;20.636;2022-11-30T11:22:57;8.40;54.90
66504;DHT22;53329;44.878;20.636;2022-11-30T11:25:57;8.50;57.70
66504;DHT22;53329;44.878;20.636;2022-11-30T11:28:23;8.40;54.30
66504;DHT22;53329;44.878;20.636;2022-11-30T11:30:54;8.40;54.20
66504;DHT22;53329;44.878;20.636;2022-11-30T11:33:24;8.40;53.60
66504;DHT22;53329;44.878;20.636;2022-11-30T11:36:12;8.40;52.50
66504;DHT22;53329;44.878;20.636;2022-11-30T11:38:44;8.30;51.40
66504;DHT22;53329;44.878;20.636;2022-11-30T11:41:32;8.40;52.70
66504;DHT22;53329;44.878;20.636;2022-11-30T11:44:07;8.40;52.30
66504;DHT22;53329;44.878;20.636;2022-11-30T11:46:56;8.40;52.90
66504;DHT22;53329;44.878;20.636;2022-11-30T11:49:24;8.40;51.60
66504;DHT22;53329;44.878;20.636;2022-11-30T11:52:10;8.40;52.00
66504;DHT22;53329;44.878;20.636;2022-11-30T11:54:53;8.30;52.40
66504;DHT22;53329;44.878;20.636;2022-11-30T11:57:23;8.30;53.20
66504;DHT22;53329;44.878;20.636;2022-11-30T11:59:59;8.40;54.10
66504;DHT22;53329;44.878;20.636;2022-11-30T12:03:41;8.40;52.00
66504;DHT22;53329;44.878;20.636;2022-11-30T12:06:09;8.30;51.80
66504;DHT22;53329;44.878;20.636;2022-11-30T12:08:47;8.20;51.80
66504;DHT22;53329;44.878;20.636;2022-11-30T12:11:44;8.30;53.50
66504;DHT22;53329;44.878;20.636;2022-11-30T12:14:17;8.30;52.80
66504;DHT22;53329;44.878;20.636;2022-11-30T12:17:52;8.20;53.20
66504;DHT22;53329;44.878;20.636;2022-11-30T12:20:23;8.20;51.00
66504;DHT22;53329;44.878;20.636;2022-11-30T12:23:32;8.30;53.40
66504;DHT22;53329;44.878;20.636;2022-11-30T12:26:33;8.20;50.50
66504;DHT22;53329;44.878;20.636;2022-11-30T12:29:19;8.10;51.50
66504;DHT22;53329;44.878;20.636;2022-11-30T12:32:02;8.20;51.00
66504;DHT22;53329;44.878;20.636;2022-11-30T12:34:51;8.30;53.20
66504;DHT22;53329;44.878;20.636;2022-11-30T12:37:57;8.10;49.20
66504;DHT22;53329;44.878;20.636;2022-11-30T12:40:35;8.10;49.50
66504;DHT22;53329;44.878;20.636;2022-11-30T12:43:21;8.10;50.80
66504;DHT22;53329;44.878;20.636;2022-11-30T12:45:58;8.10;51.50
66504;DHT22;53329;44.878;20.636;2022-11-30T12:48:43;8.10;51.00
66504;DHT22;53329;44.878;20.636;2022-11-30T12:51:23;8.00;49.70
66504;DHT22;53329;44.878;20.636;2022-11-30T12:54:15;7.90;49.90
66504;DHT22;53329;44.878;20.636;2022-11-30T12:56:48;7.80;50.00
66504;DHT22;53329;44.878;20.636;2022-11-30T12:59:25;7.80;51.10
66504;DHT22;53329;44.878;20.636;2022-11-30T13:02:36;7.70;50.80
66504;DHT22;53329;44.878;20.636;2022-11-30T13:05:15;7.60;51.50
66504;DHT22;53329;44.878;20.636;2022-11-30T13:07:50;7.70;51.80
66504;DHT22;53329;44.878;20.636;2022-11-30T13:10:28;7.60;50.70
66504;DHT22;53329;44.878;20.636;2022-11-30T13:12:56;7.70;51.20
66504;DHT22;53329;44.878;20.636;2022-11-30T13:15:27;7.70;50.60
66504;DHT22;53329;44.878;20.636;2022-11-30T13:17:56;7.70;50.10
66504;DHT22;53329;44.878;20.636;2022-11-30T13:20:39;7.70;52.20
66504;DHT22;53329;44.878;20.636;2022-11-30T13:23:34;7.70;50.00
66504;DHT22;53329;44.878;20.636;2022-11-30T13:26:41;7.60;49.50
66504;DHT22;53329;44.878;20.636;2022-11-30T13:29:12;7.70;52.10
66504;DHT22;53329;44.878;20.636;2022-11-30T13:32:01;7.80;51.00
66504;DHT22;53329;44.878;20.636;2022-11-30T13:34:31;7.70;48.40
66504;DHT22;53329;44.878;20.636;2022-11-30T13:37:10;7.70;49.50
66504;DHT22;53329;44.878;20.636;2022-11-30T13:39:52;7.60;49.10
66504;DHT22;53329;44.878;20.636;2022-11-30T13:42:34;7.60;49.90
66504;DHT22;53329;44.878;20.636;2022-11-30T13:45:31;7.50;50.20
66504;DHT22;53329;44.878;20.636;2022-11-30T13:47:58;7.30;49.20
66504;DHT22;53329;44.878;20.636;2022-11-30T13:50:36;7.30;51.90
66504;DHT22;53329;44.878;20.636;2022-11-30T13:53:16;7.30;51.40
66504;DHT22;53329;44.878;20.636;2022-11-30T13:55:49;7.30;51.20
66504;DHT22;53329;44.878;20.636;2022-11-30T13:58:18;7.20;51.50
66504;DHT22;53329;44.878;20.636;2022-11-30T14:00:47;7.10;52.60
66504;DHT22;53329;44.878;20.636;2022-11-30T14:03:27;7.10;52.60
66504;DHT22;53329;44.878;20.636;2022-11-30T14:06:03;7.10;53.10
66504;DHT22;53329;44.878;20.636;2022-11-30T14:08:32;7.10;53.30
66504;DHT22;53329;44.878;20.636;2022-11-30T14:11:37;7.10;53.40
66504;DHT22;53329;44.878;20.636;2022-11-30T14:14:46;7.10;53.00
66504;DHT22;53329;44.878;20.636;2022-11-30T14:17:15;7.00;52.90
66504;DHT22;53329;44.878;20.636;2022-11-30T14:19:47;7.10;53.10
66504;DHT22;53329;44.878;20.636;2022-11-30T14:22:14;7.10;54.10
66504;DHT22;53329;44.878;20.636;2022-11-30T14:24:45;7.00;53.30
66504;DHT22;53329;44.878;20.636;2022-11-30T14:27:15;7.00;53.60
66504;DHT22;53329;44.878;20.636;2022-11-30T14:29:42;6.90;53.10
66504;DHT22;53329;44.878;20.636;2022-11-30T14:32:17;6.90;53.10
66504;DHT22;53329;44.878;20.636;2022-11-30T14:34:47;6.90;53.40
66504;DHT22;53329;44.878;20.636;2022-11-30T14:37:17;6.80;53.60
66504;DHT22;53329;44.878;20.636;2022-11-30T14:39:45;6.80;53.90
66504;DHT22;53329;44.878;20.636;2022-11-30T14:42:26;6.80;55.60
66504;DHT22;53329;44.878;20.636;2022-11-30T14:44:52;6.80;55.50
66504;DHT22;53329;44.878;20.636;2022-11-30T14:47:30;6.70;55.70
66504;DHT22;53329;44.878;20.636;2022-11-30T14:49:58;6.70;56.40
66504;DHT22;53329;44.878;20.636;2022-11-30T14:52:42;6.70;56.60
66504;DHT22;53329;44.878;20.636;2022-11-30T14:55:19;6.70;56.60
66504;DHT22;53329;44.878;20.636;2022-11-30T14:57:58;6.70;57.20
66504;DHT22;53329;44.878;20.636;2022-11-30T15:00:36;6.70;57.40
66504;DHT22;53329;44.878;20.636;2022-11-30T15:03:31;6.80;57.30
66504;DHT22;53329;44.878;20.636;2022-11-30T15:05:51;6.70;57.40
66504;DHT22;53329;44.878;20.636;2022-11-30T15:08:17;6.70;57.90
66504;DHT22;53329;44.878;20.636;2022-11-30T15:10:44;6.60;56.50
66504;DHT22;53329;44.878;20.636;2022-11-30T15:13:16;6.60;57.30
66504;DHT22;53329;44.878;20.636;2022-11-30T15:15:52;6.60;58.30
66504;DHT22;53329;44.878;20.636;2022-11-30T15:18:20;6.60;57.20
66504;DHT22;53329;44.878;20.636;2022-11-30T15:20:54;6.50;59.10
66504;DHT22;53329;44.878;20.636;2022-11-30T15:23:20;6.60;57.10
66504;DHT22;53329;44.878;20.636;2022-11-30T15:25:48;6.60;57.10
66504;DHT22;53329;44.878;20.636;2022-11-30T15:28:25;6.60;56.70
66504;DHT22;53329;44.878;20.636;2022-11-30T15:30:55;6.50;56.60
66504;DHT22;53329;44.878;20.636;2022-11-30T15:33:25;6.50;57.80
66504;DHT22;53329;44.878;20.636;2022-11-30T15:35:54;6.60;58.60
66504;DHT22;53329;44.878;20.636;2022-11-30T15:38:20;6.50;57.60
66504;DHT22;53329;44.878;20.636;2022-11-30T15:40:48;6.50;57.20
66504;DHT22;53329;44.878;20.636;2022-11-30T15:43:35;6.50;57.90
66504;DHT22;53329;44.878;20.636;2022-11-30T15:46:03;6.60;58.90
66504;DHT22;53329;44.878;20.636;2022-11-30T15:48:35;6.50;59.10
66504;DHT22;53329;44.878;20.636;2022-11-30T15:51:02;6.40;60.00
66504;DHT22;53329;44.878;20.636;2022-11-30T15:53:30;6.50;59.70
66504;DHT22;53329;44.878;20.636;2022-11-30T15:56:02;6.50;60.80
66504;DHT22;53329;44.878;20.636;2022-11-30T15:58:40;6.50;58.80
66504;DHT22;53329;44.878;20.636;2022-11-30T16:01:20;6.40;58.10
66504;DHT22;53329;44.878;20.636;2022-11-30T16:03:59;6.40;59.80
66504;DHT22;53329;44.878;20.636;2022-11-30T16:06:30;6.30;58.30
66504;DHT22;53329;44.878;20.636;2022-11-30T16:08:59;6.30;60.80
66504;DHT22;53329;44.878;20.636;2022-11-30T16:11:26;6.30;60.50
66504;DHT22;53329;44.878;20.636;2022-11-30T16:13:52;6.30;59.50
66504;DHT22;53329;44.878;20.636;2022-11-30T16:16:21;6.20;59.10
66504;DHT22;53329;44.878;20.636;2022-11-30T16:18:48;6.20;60.20
66504;DHT22;53329;44.878;20.636;2022-11-30T16:21:17;6.30;59.70
66504;DHT22;53329;44.878;20.636;2022-11-30T16:23:43;6.20;60.00
66504;DHT22;53329;44.878;20.636;2022-11-30T16:26:11;6.30;59.70
66504;DHT22;53329;44.878;20.636;2022-11-30T16:28:38;6.20;59.30
66504;DHT22;53329;44.878;20.636;2022-11-30T16:31:04;6.30;59.40
66504;DHT22;53329;44.878;20.636;2022-11-30T16:33:30;6.30;58.40
66504;DHT22;53329;44.878;20.636;2022-11-30T16:36:01;6.20;59.40
66504;DHT22;53329;44.878;20.636;2022-11-30T16:38:27;6.10;59.70
66504;DHT22;53329;44.878;20.636;2022-11-30T16:40:54;6.10;59.40
66504;DHT22;53329;44.878;20.636;2022-11-30T16:43:23;6.00;60.00